sensor_id;sensor_type;location;lat;lon;timestamp;P1;durP1;ratioP1;P2;durP2;ratioP2
54428;SDS011;40337;52.978;6.310;2022-09-09T00:04:30;8.20;;;7.35;;
54428;SDS011;40337;52.978;6.310;2022-09-09T00:09:44;9.65;;;7.20;;
54428;SDS011;40337;52.978;6.310;2022-09-09T00:12:25;9.07;;;7.55;;
54428;SDS011;40337;52.978;6.310;2022-09-09T00:14:59;11.45;;;7.82;;
54428;SDS011;40337;52.978;6.310;2022-09-09T00:17:47;9.15;;;7.20;;
54428;SDS011;40337;52.978;6.310;2022-09-09T00:20:25;10.45;;;7.70;;
54428;SDS011;40337;52.978;6.310;2022-09-09T00:23:04;9.93;;;7.43;;
54428;SDS011;40337;52.978;6.310;2022-09-09T00:25:40;9.23;;;7.53;;
54428;SDS011;40337;52.978;6.310;2022-09-09T00:28:19;9.05;;;7.57;;
54428;SDS011;40337;52.978;6.310;2022-09-09T00:30:47;8.60;;;7.70;;
54428;SDS011;40337;52.978;6.310;2022-09-09T00:33:13;10.60;;;7.95;;
54428;SDS011;40337;52.978;6.310;2022-09-09T00:35:56;10.32;;;7.93;;
54428;SDS011;40337;52.978;6.310;2022-09-09T00:38:33;9.55;;;7.82;;
54428;SDS011;40337;52.978;6.310;2022-09-09T00:41:05;8.55;;;7.57;;
54428;SDS011;40337;52.978;6.310;2022-09-09T00:43:40;12.48;;;8.23;;
54428;SDS011;40337;52.978;6.310;2022-09-09T00:54:38;9.23;;;7.72;;
54428;SDS011;40337;52.978;6.310;2022-09-09T00:57:27;8.45;;;7.45;;
54428;SDS011;40337;52.978;6.310;2022-09-09T00:59:56;8.65;;;7.75;;
54428;SDS011;40337;52.978;6.310;2022-09-09T01:02:53;10.25;;;7.60;;
54428;SDS011;40337;52.978;6.310;2022-09-09T01:11:21;11.45;;;8.10;;
54428;SDS011;40337;52.978;6.310;2022-09-09T01:14:41;12.40;;;8.32;;
54428;SDS011;40337;52.978;6.310;2022-09-09T01:16:59;10.23;;;7.93;;
54428;SDS011;40337;52.978;6.310;2022-09-09T01:19:44;11.68;;;7.57;;
54428;SDS011;40337;52.978;6.310;2022-09-09T01:22:15;10.30;;;8.27;;
54428;SDS011;40337;52.978;6.310;2022-09-09T01:27:35;8.95;;;7.32;;
54428;SDS011;40337;52.978;6.310;2022-09-09T01:30:04;13.00;;;8.88;;
54428;SDS011;40337;52.978;6.310;2022-09-09T01:32:39;10.52;;;8.35;;
54428;SDS011;40337;52.978;6.310;2022-09-09T01:35:08;11.48;;;7.93;;
54428;SDS011;40337;52.978;6.310;2022-09-09T01:37:55;11.57;;;8.38;;
54428;SDS011;40337;52.978;6.310;2022-09-09T01:40:24;10.27;;;8.18;;
54428;SDS011;40337;52.978;6.310;2022-09-09T01:42:50;10.00;;;8.25;;
54428;SDS011;40337;52.978;6.310;2022-09-09T01:45:16;11.77;;;8.27;;
54428;SDS011;40337;52.978;6.310;2022-09-09T01:47:42;8.95;;;7.70;;
54428;SDS011;40337;52.978;6.310;2022-09-09T01:50:10;10.13;;;8.80;;
54428;SDS011;40337;52.978;6.310;2022-09-09T01:52:39;15.38;;;9.95;;
54428;SDS011;40337;52.978;6.310;2022-09-09T01:55:06;9.82;;;8.80;;
54428;SDS011;40337;52.978;6.310;2022-09-09T01:57:35;12.38;;;9.68;;
54428;SDS011;40337;52.978;6.310;2022-09-09T02:00:17;12.98;;;9.40;;
54428;SDS011;40337;52.978;6.310;2022-09-09T02:03:00;12.63;;;10.15;;
54428;SDS011;40337;52.978;6.310;2022-09-09T02:05:41;12.18;;;10.43;;
54428;SDS011;40337;52.978;6.310;2022-09-09T02:08:14;12.13;;;9.43;;
54428;SDS011;40337;52.978;6.310;2022-09-09T02:13:24;13.30;;;10.30;;
54428;SDS011;40337;52.978;6.310;2022-09-09T02:16:04;11.98;;;10.10;;
54428;SDS011;40337;52.978;6.310;2022-09-09T02:21:14;13.20;;;10.57;;
54428;SDS011;40337;52.978;6.310;2022-09-09T02:23:42;14.32;;;9.93;;
54428;SDS011;40337;52.978;6.310;2022-09-09T02:26:10;11.45;;;9.73;;
54428;SDS011;40337;52.978;6.310;2022-09-09T02:28:39;12.65;;;9.50;;
54428;SDS011;40337;52.978;6.310;2022-09-09T02:31:07;14.20;;;9.98;;
54428;SDS011;40337;52.978;6.310;2022-09-09T02:33:33;12.13;;;10.02;;
54428;SDS011;40337;52.978;6.310;2022-09-09T02:36:06;12.77;;;10.13;;
54428;SDS011;40337;52.978;6.310;2022-09-09T02:38:36;11.18;;;9.52;;
54428;SDS011;40337;52.978;6.310;2022-09-09T02:41:06;11.85;;;8.98;;
54428;SDS011;40337;52.978;6.310;2022-09-09T02:43:32;10.57;;;8.98;;
54428;SDS011;40337;52.978;6.310;2022-09-09T02:46:20;12.85;;;8.80;;
54428;SDS011;40337;52.978;6.310;2022-09-09T02:51:31;9.60;;;8.30;;
54428;SDS011;40337;52.978;6.310;2022-09-09T02:56:44;10.43;;;8.13;;
54428;SDS011;40337;52.978;6.310;2022-09-09T02:59:14;10.35;;;8.40;;
54428;SDS011;40337;52.978;6.310;2022-09-09T03:01:41;10.32;;;8.10;;
54428;SDS011;40337;52.978;6.310;2022-09-09T03:04:07;9.77;;;7.70;;
54428;SDS011;40337;52.978;6.310;2022-09-09T03:06:32;11.18;;;7.47;;
54428;SDS011;40337;52.978;6.310;2022-09-09T03:08:58;10.68;;;7.85;;
54428;SDS011;40337;52.978;6.310;2022-09-09T03:11:25;8.23;;;6.50;;
54428;SDS011;40337;52.978;6.310;2022-09-09T03:13:52;10.00;;;6.95;;
54428;SDS011;40337;52.978;6.310;2022-09-09T03:16:19;7.13;;;6.43;;
54428;SDS011;40337;52.978;6.310;2022-09-09T03:18:46;9.10;;;6.32;;
54428;SDS011;40337;52.978;6.310;2022-09-09T03:21:11;10.43;;;7.28;;
54428;SDS011;40337;52.978;6.310;2022-09-09T03:23:37;9.90;;;6.95;;
54428;SDS011;40337;52.978;6.310;2022-09-09T03:26:03;10.52;;;6.60;;
54428;SDS011;40337;52.978;6.310;2022-09-09T03:28:28;10.20;;;6.50;;
54428;SDS011;40337;52.978;6.310;2022-09-09T03:31:03;7.95;;;6.43;;
54428;SDS011;40337;52.978;6.310;2022-09-09T03:33:30;10.17;;;6.43;;
54428;SDS011;40337;52.978;6.310;2022-09-09T03:35:56;10.43;;;7.25;;
54428;SDS011;40337;52.978;6.310;2022-09-09T03:38:22;10.52;;;7.32;;
54428;SDS011;40337;52.978;6.310;2022-09-09T03:40:52;9.30;;;7.40;;
54428;SDS011;40337;52.978;6.310;2022-09-09T03:43:26;11.02;;;8.13;;
54428;SDS011;40337;52.978;6.310;2022-09-09T03:45:52;10.52;;;8.23;;
54428;SDS011;40337;52.978;6.310;2022-09-09T03:48:21;10.90;;;8.35;;
54428;SDS011;40337;52.978;6.310;2022-09-09T03:50:48;9.75;;;8.07;;
54428;SDS011;40337;52.978;6.310;2022-09-09T03:53:18;11.70;;;7.60;;
54428;SDS011;40337;52.978;6.310;2022-09-09T03:55:47;9.77;;;8.00;;
54428;SDS011;40337;52.978;6.310;2022-09-09T03:58:15;11.45;;;8.35;;
54428;SDS011;40337;52.978;6.310;2022-09-09T04:00:44;9.98;;;7.82;;
54428;SDS011;40337;52.978;6.310;2022-09-09T04:03:38;11.20;;;8.82;;
54428;SDS011;40337;52.978;6.310;2022-09-09T04:06:04;10.32;;;8.40;;
54428;SDS011;40337;52.978;6.310;2022-09-09T04:08:33;10.07;;;8.18;;
54428;SDS011;40337;52.978;6.310;2022-09-09T04:10:59;10.95;;;8.20;;
54428;SDS011;40337;52.978;6.310;2022-09-09T04:13:30;11.77;;;8.25;;
54428;SDS011;40337;52.978;6.310;2022-09-09T04:15:58;11.45;;;8.43;;
54428;SDS011;40337;52.978;6.310;2022-09-09T04:18:25;11.32;;;8.30;;
54428;SDS011;40337;52.978;6.310;2022-09-09T04:20:51;9.70;;;8.45;;
54428;SDS011;40337;52.978;6.310;2022-09-09T04:23:18;11.02;;;8.20;;
54428;SDS011;40337;52.978;6.310;2022-09-09T04:25:48;12.32;;;8.77;;
54428;SDS011;40337;52.978;6.310;2022-09-09T04:28:16;10.68;;;8.75;;
54428;SDS011;40337;52.978;6.310;2022-09-09T04:30:43;11.43;;;8.00;;
54428;SDS011;40337;52.978;6.310;2022-09-09T04:33:10;9.75;;;8.20;;
54428;SDS011;40337;52.978;6.310;2022-09-09T04:35:38;9.93;;;8.18;;
54428;SDS011;40337;52.978;6.310;2022-09-09T04:38:04;10.63;;;8.15;;
54428;SDS011;40337;52.978;6.310;2022-09-09T04:40:34;10.13;;;7.88;;
54428;SDS011;40337;52.978;6.310;2022-09-09T04:43:00;11.48;;;7.78;;
54428;SDS011;40337;52.978;6.310;2022-09-09T04:45:27;9.45;;;8.30;;
54428;SDS011;40337;52.978;6.310;2022-09-09T04:47:53;11.68;;;8.90;;
54428;SDS011;40337;52.978;6.310;2022-09-09T04:50:19;11.15;;;8.60;;
54428;SDS011;40337;52.978;6.310;2022-09-09T04:52:45;9.73;;;8.60;;
54428;SDS011;40337;52.978;6.310;2022-09-09T04:55:11;9.60;;;7.80;;
54428;SDS011;40337;52.978;6.310;2022-09-09T04:57:37;10.40;;;8.80;;
54428;SDS011;40337;52.978;6.310;2022-09-09T05:00:04;11.85;;;8.93;;
54428;SDS011;40337;52.978;6.310;2022-09-09T05:02:30;11.18;;;9.55;;
54428;SDS011;40337;52.978;6.310;2022-09-09T05:04:57;12.10;;;9.82;;
54428;SDS011;40337;52.978;6.310;2022-09-09T05:07:23;11.48;;;9.43;;
54428;SDS011;40337;52.978;6.310;2022-09-09T05:09:48;11.85;;;10.30;;
54428;SDS011;40337;52.978;6.310;2022-09-09T05:12:15;12.40;;;10.02;;
54428;SDS011;40337;52.978;6.310;2022-09-09T05:14:41;13.77;;;10.57;;
54428;SDS011;40337;52.978;6.310;2022-09-09T05:17:08;12.35;;;10.10;;
54428;SDS011;40337;52.978;6.310;2022-09-09T05:19:33;12.25;;;10.52;;
54428;SDS011;40337;52.978;6.310;2022-09-09T05:21:59;13.10;;;10.70;;
54428;SDS011;40337;52.978;6.310;2022-09-09T05:24:26;14.02;;;11.00;;
54428;SDS011;40337;52.978;6.310;2022-09-09T05:26:51;13.18;;;11.07;;
54428;SDS011;40337;52.978;6.310;2022-09-09T05:29:17;13.18;;;10.90;;
54428;SDS011;40337;52.978;6.310;2022-09-09T05:31:44;13.98;;;10.95;;
54428;SDS011;40337;52.978;6.310;2022-09-09T05:34:10;13.00;;;10.75;;
54428;SDS011;40337;52.978;6.310;2022-09-09T05:36:36;13.48;;;11.25;;
54428;SDS011;40337;52.978;6.310;2022-09-09T05:39:02;12.68;;;11.25;;
54428;SDS011;40337;52.978;6.310;2022-09-09T05:41:28;13.60;;;10.80;;
54428;SDS011;40337;52.978;6.310;2022-09-09T05:43:54;12.05;;;10.60;;
54428;SDS011;40337;52.978;6.310;2022-09-09T05:46:21;13.07;;;10.55;;
54428;SDS011;40337;52.978;6.310;2022-09-09T05:48:49;11.48;;;9.98;;
54428;SDS011;40337;52.978;6.310;2022-09-09T05:51:17;13.00;;;10.50;;
54428;SDS011;40337;52.978;6.310;2022-09-09T05:53:46;11.68;;;9.93;;
54428;SDS011;40337;52.978;6.310;2022-09-09T05:56:31;12.30;;;9.48;;
54428;SDS011;40337;52.978;6.310;2022-09-09T05:58:57;12.18;;;9.35;;
54428;SDS011;40337;52.978;6.310;2022-09-09T06:01:26;11.25;;;8.90;;
54428;SDS011;40337;52.978;6.310;2022-09-09T06:03:53;10.73;;;9.15;;
54428;SDS011;40337;52.978;6.310;2022-09-09T06:06:20;12.13;;;9.90;;
54428;SDS011;40337;52.978;6.310;2022-09-09T06:08:49;10.93;;;9.55;;
54428;SDS011;40337;52.978;6.310;2022-09-09T06:11:17;10.85;;;8.95;;
54428;SDS011;40337;52.978;6.310;2022-09-09T06:13:47;11.43;;;9.32;;
54428;SDS011;40337;52.978;6.310;2022-09-09T06:16:16;11.43;;;9.52;;
54428;SDS011;40337;52.978;6.310;2022-09-09T06:18:43;10.50;;;9.40;;
54428;SDS011;40337;52.978;6.310;2022-09-09T06:21:16;10.80;;;9.20;;
54428;SDS011;40337;52.978;6.310;2022-09-09T06:23:46;10.70;;;8.88;;
54428;SDS011;40337;52.978;6.310;2022-09-09T06:26:13;10.95;;;9.52;;
54428;SDS011;40337;52.978;6.310;2022-09-09T06:28:43;9.80;;;8.25;;
54428;SDS011;40337;52.978;6.310;2022-09-09T06:31:11;10.57;;;9.15;;
54428;SDS011;40337;52.978;6.310;2022-09-09T06:33:38;10.63;;;8.95;;
54428;SDS011;40337;52.978;6.310;2022-09-09T06:36:27;9.70;;;8.60;;
54428;SDS011;40337;52.978;6.310;2022-09-09T06:38:56;10.50;;;8.40;;
54428;SDS011;40337;52.978;6.310;2022-09-09T06:41:22;11.45;;;9.15;;
54428;SDS011;40337;52.978;6.310;2022-09-09T06:43:51;10.80;;;8.98;;
54428;SDS011;40337;52.978;6.310;2022-09-09T06:46:20;10.18;;;8.50;;
54428;SDS011;40337;52.978;6.310;2022-09-09T06:48:48;11.65;;;9.20;;
54428;SDS011;40337;52.978;6.310;2022-09-09T06:51:15;11.57;;;8.63;;
54428;SDS011;40337;52.978;6.310;2022-09-09T06:53:46;9.73;;;8.45;;
54428;SDS011;40337;52.978;6.310;2022-09-09T06:56:17;9.73;;;8.32;;
54428;SDS011;40337;52.978;6.310;2022-09-09T06:58:43;8.93;;;8.02;;
54428;SDS011;40337;52.978;6.310;2022-09-09T07:01:11;10.02;;;8.50;;
54428;SDS011;40337;52.978;6.310;2022-09-09T07:03:49;8.70;;;7.70;;
54428;SDS011;40337;52.978;6.310;2022-09-09T07:06:23;10.05;;;7.97;;
54428;SDS011;40337;52.978;6.310;2022-09-09T07:08:53;9.68;;;7.28;;
54428;SDS011;40337;52.978;6.310;2022-09-09T07:11:21;9.82;;;7.78;;
54428;SDS011;40337;52.978;6.310;2022-09-09T07:13:47;9.88;;;7.47;;
54428;SDS011;40337;52.978;6.310;2022-09-09T07:16:14;9.48;;;7.10;;
54428;SDS011;40337;52.978;6.310;2022-09-09T07:18:42;9.45;;;7.22;;
54428;SDS011;40337;52.978;6.310;2022-09-09T07:21:09;9.77;;;7.47;;
54428;SDS011;40337;52.978;6.310;2022-09-09T07:23:37;11.00;;;7.50;;
54428;SDS011;40337;52.978;6.310;2022-09-09T07:26:06;10.23;;;6.93;;
54428;SDS011;40337;52.978;6.310;2022-09-09T07:28:37;7.97;;;7.03;;
54428;SDS011;40337;52.978;6.310;2022-09-09T07:31:03;9.05;;;7.07;;
54428;SDS011;40337;52.978;6.310;2022-09-09T07:33:30;8.95;;;7.22;;
54428;SDS011;40337;52.978;6.310;2022-09-09T07:36:08;9.68;;;7.15;;
54428;SDS011;40337;52.978;6.310;2022-09-09T07:38:42;10.32;;;7.25;;
54428;SDS011;40337;52.978;6.310;2022-09-09T07:41:16;9.45;;;6.97;;
54428;SDS011;40337;52.978;6.310;2022-09-09T07:43:47;8.25;;;6.90;;
54428;SDS011;40337;52.978;6.310;2022-09-09T07:46:14;9.43;;;7.05;;
54428;SDS011;40337;52.978;6.310;2022-09-09T07:48:46;9.60;;;6.97;;
54428;SDS011;40337;52.978;6.310;2022-09-09T07:51:18;9.32;;;7.25;;
54428;SDS011;40337;52.978;6.310;2022-09-09T07:53:47;9.48;;;7.05;;
54428;SDS011;40337;52.978;6.310;2022-09-09T07:56:16;9.52;;;6.68;;
54428;SDS011;40337;52.978;6.310;2022-09-09T07:58:46;9.43;;;6.75;;
54428;SDS011;40337;52.978;6.310;2022-09-09T08:01:15;8.82;;;6.55;;
54428;SDS011;40337;52.978;6.310;2022-09-09T08:03:53;10.48;;;7.43;;
54428;SDS011;40337;52.978;6.310;2022-09-09T08:06:26;8.85;;;7.45;;
54428;SDS011;40337;52.978;6.310;2022-09-09T08:08:53;9.93;;;7.57;;
54428;SDS011;40337;52.978;6.310;2022-09-09T08:11:22;9.43;;;6.78;;
54428;SDS011;40337;52.978;6.310;2022-09-09T08:13:49;10.65;;;7.10;;
54428;SDS011;40337;52.978;6.310;2022-09-09T08:16:17;9.10;;;6.90;;
54428;SDS011;40337;52.978;6.310;2022-09-09T08:18:47;10.40;;;7.03;;
54428;SDS011;40337;52.978;6.310;2022-09-09T08:21:18;10.15;;;6.70;;
54428;SDS011;40337;52.978;6.310;2022-09-09T08:23:46;9.60;;;7.05;;
54428;SDS011;40337;52.978;6.310;2022-09-09T08:26:14;10.10;;;7.20;;
54428;SDS011;40337;52.978;6.310;2022-09-09T08:28:42;10.80;;;6.55;;
54428;SDS011;40337;52.978;6.310;2022-09-09T08:31:09;8.10;;;5.80;;
54428;SDS011;40337;52.978;6.310;2022-09-09T08:33:35;9.32;;;6.70;;
54428;SDS011;40337;52.978;6.310;2022-09-09T08:36:03;9.68;;;6.10;;
54428;SDS011;40337;52.978;6.310;2022-09-09T08:38:29;8.55;;;5.90;;
54428;SDS011;40337;52.978;6.310;2022-09-09T08:43:43;9.32;;;5.30;;
54428;SDS011;40337;52.978;6.310;2022-09-09T08:46:33;7.57;;;4.90;;
54428;SDS011;40337;52.978;6.310;2022-09-09T08:49:02;8.02;;;4.97;;
54428;SDS011;40337;52.978;6.310;2022-09-09T08:51:54;7.78;;;4.90;;
54428;SDS011;40337;52.978;6.310;2022-09-09T08:54:22;8.32;;;4.70;;
54428;SDS011;40337;52.978;6.310;2022-09-09T08:56:48;9.27;;;4.78;;
54428;SDS011;40337;52.978;6.310;2022-09-09T08:59:16;9.88;;;4.93;;
54428;SDS011;40337;52.978;6.310;2022-09-09T09:04:50;8.82;;;4.70;;
54428;SDS011;40337;52.978;6.310;2022-09-09T09:07:32;8.70;;;4.40;;
54428;SDS011;40337;52.978;6.310;2022-09-09T09:10:29;8.40;;;4.38;;
54428;SDS011;40337;52.978;6.310;2022-09-09T09:13:07;10.32;;;4.45;;
54428;SDS011;40337;52.978;6.310;2022-09-09T09:15:38;11.10;;;4.68;;
54428;SDS011;40337;52.978;6.310;2022-09-09T09:18:07;9.93;;;4.15;;
54428;SDS011;40337;52.978;6.310;2022-09-09T09:20:49;9.70;;;3.90;;
54428;SDS011;40337;52.978;6.310;2022-09-09T09:23:42;7.80;;;3.90;;
54428;SDS011;40337;52.978;6.310;2022-09-09T09:26:20;9.43;;;4.18;;
54428;SDS011;40337;52.978;6.310;2022-09-09T09:28:49;10.25;;;4.07;;
54428;SDS011;40337;52.978;6.310;2022-09-09T09:31:18;8.70;;;4.28;;
54428;SDS011;40337;52.978;6.310;2022-09-09T09:36:13;6.65;;;4.07;;
54428;SDS011;40337;52.978;6.310;2022-09-09T09:38:58;10.23;;;4.32;;
54428;SDS011;40337;52.978;6.310;2022-09-09T09:41:36;7.85;;;3.97;;
54428;SDS011;40337;52.978;6.310;2022-09-09T09:46:52;7.22;;;3.40;;
54428;SDS011;40337;52.978;6.310;2022-09-09T09:49:29;9.15;;;3.80;;
54428;SDS011;40337;52.978;6.310;2022-09-09T09:52:03;9.70;;;3.95;;
54428;SDS011;40337;52.978;6.310;2022-09-09T09:54:31;7.47;;;3.78;;
54428;SDS011;40337;52.978;6.310;2022-09-09T09:57:11;6.97;;;3.60;;
54428;SDS011;40337;52.978;6.310;2022-09-09T09:59:38;9.10;;;3.90;;
54428;SDS011;40337;52.978;6.310;2022-09-09T10:02:23;10.48;;;3.90;;
54428;SDS011;40337;52.978;6.310;2022-09-09T10:05:01;7.72;;;3.35;;
54428;SDS011;40337;52.978;6.310;2022-09-09T10:07:31;8.27;;;3.63;;
54428;SDS011;40337;52.978;6.310;2022-09-09T10:09:58;6.90;;;3.17;;
54428;SDS011;40337;52.978;6.310;2022-09-09T10:21:25;7.82;;;2.67;;
54428;SDS011;40337;52.978;6.310;2022-09-09T10:32:06;7.10;;;3.00;;
54428;SDS011;40337;52.978;6.310;2022-09-09T10:34:56;5.03;;;2.42;;
54428;SDS011;40337;52.978;6.310;2022-09-09T10:49:07;7.38;;;2.50;;
54428;SDS011;40337;52.978;6.310;2022-09-09T10:57:01;7.10;;;2.30;;
54428;SDS011;40337;52.978;6.310;2022-09-09T11:00:03;6.97;;;2.25;;
54428;SDS011;40337;52.978;6.310;2022-09-09T11:02:44;5.28;;;2.40;;
54428;SDS011;40337;52.978;6.310;2022-09-09T11:07:49;7.55;;;2.15;;
54428;SDS011;40337;52.978;6.310;2022-09-09T11:10:33;8.13;;;2.25;;
54428;SDS011;40337;52.978;6.310;2022-09-09T11:13:05;6.65;;;2.35;;
54428;SDS011;40337;52.978;6.310;2022-09-09T11:15:45;7.80;;;2.58;;
54428;SDS011;40337;52.978;6.310;2022-09-09T11:18:19;5.35;;;2.20;;
54428;SDS011;40337;52.978;6.310;2022-09-09T11:20:50;6.75;;;2.67;;
54428;SDS011;40337;52.978;6.310;2022-09-09T11:23:22;9.07;;;2.85;;
54428;SDS011;40337;52.978;6.310;2022-09-09T11:25:58;6.05;;;2.33;;
54428;SDS011;40337;52.978;6.310;2022-09-09T11:28:41;5.45;;;2.28;;
54428;SDS011;40337;52.978;6.310;2022-09-09T11:34:04;8.48;;;2.50;;
54428;SDS011;40337;52.978;6.310;2022-09-09T11:42:32;6.25;;;2.33;;
54428;SDS011;40337;52.978;6.310;2022-09-09T11:45:07;7.15;;;2.10;;
54428;SDS011;40337;52.978;6.310;2022-09-09T11:47:36;7.13;;;2.20;;
54428;SDS011;40337;52.978;6.310;2022-09-09T11:52:41;8.15;;;2.83;;
54428;SDS011;40337;52.978;6.310;2022-09-09T11:55:32;8.05;;;2.85;;
54428;SDS011;40337;52.978;6.310;2022-09-09T11:58:04;6.07;;;2.15;;
54428;SDS011;40337;52.978;6.310;2022-09-09T12:00:44;6.30;;;2.30;;
54428;SDS011;40337;52.978;6.310;2022-09-09T12:06:17;7.75;;;2.50;;
54428;SDS011;40337;52.978;6.310;2022-09-09T12:08:46;7.20;;;2.45;;
54428;SDS011;40337;52.978;6.310;2022-09-09T12:11:24;8.07;;;2.75;;
54428;SDS011;40337;52.978;6.310;2022-09-09T12:13:52;6.80;;;2.40;;
54428;SDS011;40337;52.978;6.310;2022-09-09T12:16:32;5.85;;;2.40;;
54428;SDS011;40337;52.978;6.310;2022-09-09T12:19:03;8.68;;;2.88;;
54428;SDS011;40337;52.978;6.310;2022-09-09T12:24:24;6.30;;;2.28;;
54428;SDS011;40337;52.978;6.310;2022-09-09T12:27:07;7.60;;;2.55;;
54428;SDS011;40337;52.978;6.310;2022-09-09T12:30:04;7.68;;;2.30;;
54428;SDS011;40337;52.978;6.310;2022-09-09T12:32:34;6.03;;;2.00;;
54428;SDS011;40337;52.978;6.310;2022-09-09T12:35:04;4.35;;;1.70;;
54428;SDS011;40337;52.978;6.310;2022-09-09T12:38:05;6.05;;;2.05;;
54428;SDS011;40337;52.978;6.310;2022-09-09T12:40:32;4.45;;;1.70;;
54428;SDS011;40337;52.978;6.310;2022-09-09T12:43:14;7.95;;;2.03;;
54428;SDS011;40337;52.978;6.310;2022-09-09T12:45:46;6.47;;;2.13;;
54428;SDS011;40337;52.978;6.310;2022-09-09T12:48:15;6.18;;;2.10;;
54428;SDS011;40337;52.978;6.310;2022-09-09T12:50:45;5.82;;;1.80;;
54428;SDS011;40337;52.978;6.310;2022-09-09T12:53:21;4.90;;;1.83;;
54428;SDS011;40337;52.978;6.310;2022-09-09T12:55:56;5.55;;;1.90;;
54428;SDS011;40337;52.978;6.310;2022-09-09T12:58:24;6.47;;;2.20;;
54428;SDS011;40337;52.978;6.310;2022-09-09T13:00:53;5.43;;;1.80;;
54428;SDS011;40337;52.978;6.310;2022-09-09T13:03:23;5.90;;;2.08;;
54428;SDS011;40337;52.978;6.310;2022-09-09T13:05:50;7.00;;;2.15;;
54428;SDS011;40337;52.978;6.310;2022-09-09T13:08:17;5.65;;;2.05;;
54428;SDS011;40337;52.978;6.310;2022-09-09T13:11:00;5.97;;;2.08;;
54428;SDS011;40337;52.978;6.310;2022-09-09T13:13:34;4.63;;;2.20;;
54428;SDS011;40337;52.978;6.310;2022-09-09T13:16:05;5.78;;;1.80;;
54428;SDS011;40337;52.978;6.310;2022-09-09T13:18:41;5.68;;;1.77;;
54428;SDS011;40337;52.978;6.310;2022-09-09T13:21:07;5.43;;;1.70;;
54428;SDS011;40337;52.978;6.310;2022-09-09T13:23:34;5.00;;;1.60;;
54428;SDS011;40337;52.978;6.310;2022-09-09T13:26:02;4.78;;;1.70;;
54428;SDS011;40337;52.978;6.310;2022-09-09T13:28:43;4.85;;;1.63;;
54428;SDS011;40337;52.978;6.310;2022-09-09T13:33:47;5.78;;;1.70;;
54428;SDS011;40337;52.978;6.310;2022-09-09T13:36:13;4.90;;;1.75;;
54428;SDS011;40337;52.978;6.310;2022-09-09T13:41:29;4.18;;;1.77;;
54428;SDS011;40337;52.978;6.310;2022-09-09T13:43:55;4.88;;;1.65;;
54428;SDS011;40337;52.978;6.310;2022-09-09T13:54:03;6.78;;;1.77;;
54428;SDS011;40337;52.978;6.310;2022-09-09T13:56:34;3.65;;;1.55;;
54428;SDS011;40337;52.978;6.310;2022-09-09T13:59:00;7.18;;;2.33;;
54428;SDS011;40337;52.978;6.310;2022-09-09T14:01:27;4.93;;;1.90;;
54428;SDS011;40337;52.978;6.310;2022-09-09T14:03:53;5.50;;;2.15;;
54428;SDS011;40337;52.978;6.310;2022-09-09T14:06:19;5.85;;;2.45;;
54428;SDS011;40337;52.978;6.310;2022-09-09T14:08:46;9.43;;;2.70;;
54428;SDS011;40337;52.978;6.310;2022-09-09T14:11:13;6.07;;;2.40;;
54428;SDS011;40337;52.978;6.310;2022-09-09T14:13:39;8.27;;;2.60;;
54428;SDS011;40337;52.978;6.310;2022-09-09T14:16:05;5.45;;;2.17;;
54428;SDS011;40337;52.978;6.310;2022-09-09T14:18:31;5.30;;;2.20;;
54428;SDS011;40337;52.978;6.310;2022-09-09T14:20:56;5.60;;;2.05;;
54428;SDS011;40337;52.978;6.310;2022-09-09T14:23:23;4.53;;;1.80;;
54428;SDS011;40337;52.978;6.310;2022-09-09T14:25:49;7.63;;;2.00;;
54428;SDS011;40337;52.978;6.310;2022-09-09T14:28:15;4.90;;;1.90;;
54428;SDS011;40337;52.978;6.310;2022-09-09T14:30:42;5.38;;;1.80;;
54428;SDS011;40337;52.978;6.310;2022-09-09T14:33:10;6.80;;;2.28;;
54428;SDS011;40337;52.978;6.310;2022-09-09T14:35:37;7.10;;;2.35;;
54428;SDS011;40337;52.978;6.310;2022-09-09T14:38:03;6.38;;;2.05;;
54428;SDS011;40337;52.978;6.310;2022-09-09T14:40:29;4.95;;;1.80;;
54428;SDS011;40337;52.978;6.310;2022-09-09T14:42:55;3.42;;;1.60;;
54428;SDS011;40337;52.978;6.310;2022-09-09T14:45:21;4.82;;;2.00;;
54428;SDS011;40337;52.978;6.310;2022-09-09T14:47:50;4.13;;;2.10;;
54428;SDS011;40337;52.978;6.310;2022-09-09T14:50:16;5.43;;;1.90;;
54428;SDS011;40337;52.978;6.310;2022-09-09T14:52:42;5.30;;;1.92;;
54428;SDS011;40337;52.978;6.310;2022-09-09T14:55:08;5.35;;;1.90;;
54428;SDS011;40337;52.978;6.310;2022-09-09T14:57:34;4.28;;;1.80;;
54428;SDS011;40337;52.978;6.310;2022-09-09T15:00:01;4.22;;;1.70;;
54428;SDS011;40337;52.978;6.310;2022-09-09T15:02:28;5.28;;;1.70;;
54428;SDS011;40337;52.978;6.310;2022-09-09T15:04:55;7.43;;;1.95;;
54428;SDS011;40337;52.978;6.310;2022-09-09T15:07:23;5.25;;;1.63;;
54428;SDS011;40337;52.978;6.310;2022-09-09T15:09:49;5.30;;;1.70;;
54428;SDS011;40337;52.978;6.310;2022-09-09T15:12:14;4.18;;;1.50;;
54428;SDS011;40337;52.978;6.310;2022-09-09T15:14:43;4.82;;;1.60;;
54428;SDS011;40337;52.978;6.310;2022-09-09T15:17:09;5.25;;;1.60;;
54428;SDS011;40337;52.978;6.310;2022-09-09T15:19:34;4.47;;;1.75;;
54428;SDS011;40337;52.978;6.310;2022-09-09T15:22:01;3.30;;;1.65;;
54428;SDS011;40337;52.978;6.310;2022-09-09T15:24:28;3.30;;;1.65;;
54428;SDS011;40337;52.978;6.310;2022-09-09T15:26:53;4.25;;;2.00;;
54428;SDS011;40337;52.978;6.310;2022-09-09T15:29:19;5.50;;;2.17;;
54428;SDS011;40337;52.978;6.310;2022-09-09T15:31:45;5.07;;;1.85;;
54428;SDS011;40337;52.978;6.310;2022-09-09T15:34:11;4.97;;;2.03;;
54428;SDS011;40337;52.978;6.310;2022-09-09T15:36:45;4.47;;;1.90;;
54428;SDS011;40337;52.978;6.310;2022-09-09T15:39:14;8.57;;;2.53;;
54428;SDS011;40337;52.978;6.310;2022-09-09T15:41:42;4.43;;;2.10;;
54428;SDS011;40337;52.978;6.310;2022-09-09T15:44:10;4.70;;;2.35;;
54428;SDS011;40337;52.978;6.310;2022-09-09T15:46:38;3.40;;;2.10;;
54428;SDS011;40337;52.978;6.310;2022-09-09T15:51:34;6.13;;;2.15;;
54428;SDS011;40337;52.978;6.310;2022-09-09T15:54:00;4.20;;;1.90;;
54428;SDS011;40337;52.978;6.310;2022-09-09T15:56:26;3.50;;;1.95;;
54428;SDS011;40337;52.978;6.310;2022-09-09T15:58:53;6.22;;;2.30;;
54428;SDS011;40337;52.978;6.310;2022-09-09T16:01:20;4.15;;;2.22;;
54428;SDS011;40337;52.978;6.310;2022-09-09T16:03:46;5.03;;;2.20;;
54428;SDS011;40337;52.978;6.310;2022-09-09T16:06:13;6.22;;;2.30;;
54428;SDS011;40337;52.978;6.310;2022-09-09T16:08:40;5.38;;;2.22;;
54428;SDS011;40337;52.978;6.310;2022-09-09T16:11:15;4.70;;;2.03;;
54428;SDS011;40337;52.978;6.310;2022-09-09T16:13:43;6.40;;;2.03;;
54428;SDS011;40337;52.978;6.310;2022-09-09T16:16:12;4.60;;;2.10;;
54428;SDS011;40337;52.978;6.310;2022-09-09T16:18:41;7.05;;;2.40;;
54428;SDS011;40337;52.978;6.310;2022-09-09T16:21:32;4.22;;;2.10;;
54428;SDS011;40337;52.978;6.310;2022-09-09T16:23:58;5.25;;;2.20;;
54428;SDS011;40337;52.978;6.310;2022-09-09T16:26:25;5.50;;;2.13;;
54428;SDS011;40337;52.978;6.310;2022-09-09T16:28:51;5.30;;;1.80;;
54428;SDS011;40337;52.978;6.310;2022-09-09T16:31:20;4.75;;;2.10;;
54428;SDS011;40337;52.978;6.310;2022-09-09T16:33:47;3.97;;;1.75;;
54428;SDS011;40337;52.978;6.310;2022-09-09T16:36:16;4.45;;;2.38;;
54428;SDS011;40337;52.978;6.310;2022-09-09T16:38:46;4.38;;;1.90;;
54428;SDS011;40337;52.978;6.310;2022-09-09T16:41:12;5.63;;;2.10;;
54428;SDS011;40337;52.978;6.310;2022-09-09T16:43:39;5.97;;;2.13;;
54428;SDS011;40337;52.978;6.310;2022-09-09T16:46:15;5.05;;;2.35;;
54428;SDS011;40337;52.978;6.310;2022-09-09T16:48:44;5.85;;;1.92;;
54428;SDS011;40337;52.978;6.310;2022-09-09T16:51:12;4.78;;;2.33;;
54428;SDS011;40337;52.978;6.310;2022-09-09T16:53:45;4.30;;;2.40;;
54428;SDS011;40337;52.978;6.310;2022-09-09T16:56:18;4.85;;;2.35;;
54428;SDS011;40337;52.978;6.310;2022-09-09T16:58:49;6.97;;;2.58;;